Mcmasterville, Canada
Current Conditions -  °F | °C
As of 10:00 PM on Wednesday 26 Nov 2014 (Local Time) from CYHU Reporting Station
Overcast Overcast  
Wind Chill: 20°   Ceiling: 7000
Heat Index: 30°   Visibility: 9mi
Dew Point: 21°   Wind: 14mph
Humidity: 69%   Direction: 20°NNE
Pressure: 30.06"   Gusts: NA
Location:  45.55°N, 73.23°W
Report Text: CYHU 270300Z AUTO 02012KT 9SM OVC070 M01/M06 A3006 RMK SLP179
Loading
Personal Weather Stations






























Interactive Weather Map New forecast layout! Learn more

10-Day Weather Forecast

Advertisements
Track Severe Weather on mobile